Sulphur, Oklahoma
Current Conditions -  °F | °C
As of 4:55 PM on Thursday 20 Nov 2014 (Local Time) from KADM Reporting Station
Clear Clear  
Wind Chill: 64°   Ceiling: Unl
Heat Index: 64°   Visibility: 10mi
Dew Point: 45°   Wind: 5mph
Humidity: 49%   Direction: 120°ESE
Pressure: 29.99"   Gusts: NA
Location:  34.51°N, 96.97°W
Report Text: KADM 202255Z 12004KT 10SM SKC 18/07 A2999
Loading
Personal Weather Stations






























Interactive Weather Map New forecast layout! Learn more

10-Day Weather Forecast

Advertisements
Track Severe Weather on mobile